SARC/CNQ METAR and TAF weather

Enter ICAO airport designator
Station Type Date Time Source
SARC METAR 2019/08/22 07:00 UTC NOAA

SARC 220700Z 14009KT CAVOK 12/08 Q1019


Station Type Date Time Source
SARC Decoded METAR 2019/08/22 07:00 UTC NOAA

Station name not available
Aug 22, 2019 - 03:00 AM EDT / 2019.08.22 0700 UTC
Wind: from the SE (140 degrees) at 10 MPH (9 KT):0
Visibility: greater than 7 mile(s):0
Temperature: 53 F (12 C)
Dew Point: 46 F (8 C)
Relative Humidity: 76%
Pressure (altimeter): 30.09 in. Hg (1019 hPa)
ob: SARC 220700Z 14009KT CAVOK 12/08 Q1019
cycle: 7

Station Type Date Time Source
SARC TAF 2019/03/09 18:39 UTC NOAA

TAF TAF COR SARC 091700Z 0918/1018 16010KT 4000 +DZ OVC015 TX26/1018Z TN17/1009Z 0919/0921 9999 BKN015 BKN020
BECMG 0923/1001 09005KT CAVOK
TEMPO 1005/1011 9999 SCT025 BKN100

Example: see airport list